Medford, WI

9:07 PM CDT on August 29, 2014 (GMT -0500)
Taylor County | Change Station
CLOSE
Current Station
Airport
Location: Medford,
Elevation: 1470 ft
Nearby Weather Stations

Elev 1470 ft 45.10 °N, 90.30 °W | Updated 12 minutes ago

Overcast
Overcast
64 °F
Feels Like 64 °F
N
6
Wind Variable Wind from SSE

Today
High -- | Low -- °F
--% Chance of Precip.
Yesterday
High -- | Low -- °F
Precip. -- in
6:19 AM 7:44 PM
Waxing Crescent, 18% visible
Pressure 29.83 in
Visibility 10.0 miles
Clouds Scattered Clouds 4200 ft
Scattered Clouds 5000 ft
Overcast 11000 ft
Dew Point 63 °F
Humidity 98%
Rainfall 1.29 in
Snow Depth Not available.
UV 0 out of 12
Pollen 1.10 out of 12
Air Quality Not available.
Flu Activity Not available.
METAR KMDZ 300155Z AUTO 15005KT 10SM SCT042 SCT050 OVC110 18/17 A2983 RMK AO2 LTG DSNT W P0002 T01750172

More Conditions Fewer Conditions

Pressure 29.83 in
Visibility 10.0 miles
Clouds Scattered Clouds 4200 ft
Scattered Clouds 5000 ft
Overcast 11000 ft
Dew Point 63 °F
Humidity 98%
Rainfall 1.29 in
Snow Depth Not available.
UV 0 out of 12
Pollen 1.10 out of 12
Air Quality Not available.
Flu Activity Not available.
METAR KMDZ 300155Z AUTO 15005KT 10SM SCT042 SCT050 OVC110 18/17 A2983 RMK AO2 LTG DSNT W P0002 T01750172

More Conditions Fewer Conditions

10-Day Weather Forecast

Almanac

Astronomy

Aug. 29, 2014 Rise Set
Actual Time 6:19 AM CDT 7:44 PM CDT
Civil Twilight 5:49 AM CDT 8:14 PM CDT
Nautical Twilight 5:11 AM CDT 8:51 PM CDT
Astronomical Twilight 4:32 AM CDT 9:30 PM CDT
Moon 10:21 AM CDT (8/29) 9:28 PM CDT (8/29)
Length of Visible Light 14h 25m
Length of Day
13h 24m
Tomorrow will be 3m 1s shorter.
Waxing Crescent, 18% of the Moon is Illuminated
Today
Waxing Crescent
Sep 2
First Quarter
Sep 8
Full
Sep 15
Last Quarter
Sep 24
New

Today's Extremes

State Highs State Lows

Community

WunderPhotos

Upload Photos

1,748,405 photos uploaded!

Nearby

Snow Depth

Station Depth Elevation
No new snow has been reported.

Earthquake Activity

City Distance Mag. Time & Date
No recent earthquake activity has been reported nearby.
Minimum magnitude displayed is 2.5.

Coastal Water Temperatures

Place Temperature
No Stations Reporting

Nearby Weather Stations